sensor_id;sensor_type;location;lat;lon;timestamp;pressure;altitude;pressure_sealevel;temperature;humidity
73824;BME280;62154;54.914;73.444;2023-02-08T00:00:38;101407.28;;;-13.46;80.11
73824;BME280;62154;54.914;73.444;2023-02-08T00:03:06;101416.13;;;-13.45;79.94
73824;BME280;62154;54.914;73.444;2023-02-08T00:05:33;101421.56;;;-13.48;79.74
73824;BME280;62154;54.914;73.444;2023-02-08T00:08:01;101417.41;;;-13.58;79.67
73824;BME280;62154;54.914;73.444;2023-02-08T00:10:31;101424.59;;;-13.62;79.90
73824;BME280;62154;54.914;73.444;2023-02-08T00:13:00;101415.69;;;-13.61;80.07
73824;BME280;62154;54.914;73.444;2023-02-08T00:15:28;101417.41;;;-13.58;79.98
73824;BME280;62154;54.914;73.444;2023-02-08T00:17:56;101371.78;;;-13.82;79.86
73824;BME280;62154;54.914;73.444;2023-02-08T00:20:23;101358.63;;;-13.88;79.43
73824;BME280;62154;54.914;73.444;2023-02-08T00:22:56;101407.63;;;-13.59;79.52
73824;BME280;62154;54.914;73.444;2023-02-08T00:25:34;101418.22;;;-13.56;79.39
73824;BME280;62154;54.914;73.444;2023-02-08T00:28:03;101411.97;;;-13.55;79.42
73824;BME280;62154;54.914;73.444;2023-02-08T00:30:32;101404.88;;;-13.56;79.26
73824;BME280;62154;54.914;73.444;2023-02-08T00:33:02;101421.69;;;-13.53;78.73
73824;BME280;62154;54.914;73.444;2023-02-08T00:35:30;101428.06;;;-13.58;78.88
73824;BME280;62154;54.914;73.444;2023-02-08T00:38:00;101421.88;;;-13.61;78.84
73824;BME280;62154;54.914;73.444;2023-02-08T00:40:31;101420.13;;;-13.60;78.89
73824;BME280;62154;54.914;73.444;2023-02-08T00:42:58;101427.16;;;-13.59;78.89
73824;BME280;62154;54.914;73.444;2023-02-08T00:45:36;101417.47;;;-13.62;78.44
73824;BME280;62154;54.914;73.444;2023-02-08T00:48:04;101418.47;;;-13.66;78.30
73824;BME280;62154;54.914;73.444;2023-02-08T00:50:36;101414.13;;;-13.70;78.14
73824;BME280;62154;54.914;73.444;2023-02-08T00:53:04;101413.34;;;-13.73;78.12
73824;BME280;62154;54.914;73.444;2023-02-08T00:55:31;101408.94;;;-13.76;78.42
73824;BME280;62154;54.914;73.444;2023-02-08T00:57:59;101409.97;;;-13.80;78.48
73824;BME280;62154;54.914;73.444;2023-02-08T01:00:27;101416.16;;;-13.80;78.26
73824;BME280;62154;54.914;73.444;2023-02-08T01:02:54;101418.81;;;-13.80;78.40
73824;BME280;62154;54.914;73.444;2023-02-08T01:05:22;101390.75;;;-13.93;78.08
73824;BME280;62154;54.914;73.444;2023-02-08T01:07:49;101398.69;;;-13.91;78.03
73824;BME280;62154;54.914;73.444;2023-02-08T01:10:26;101429.63;;;-13.86;78.05
73824;BME280;62154;54.914;73.444;2023-02-08T01:13:04;101376.00;;;-14.08;77.70
73824;BME280;62154;54.914;73.444;2023-02-08T01:15:32;101417.50;;;-13.98;77.82
73824;BME280;62154;54.914;73.444;2023-02-08T01:18:01;101411.31;;;-13.98;77.76
73824;BME280;62154;54.914;73.444;2023-02-08T01:20:34;101425.44;;;-13.96;77.62
73824;BME280;62154;54.914;73.444;2023-02-08T01:23:13;101426.41;;;-13.99;77.64
73824;BME280;62154;54.914;73.444;2023-02-08T01:25:45;101416.69;;;-14.01;77.49
73824;BME280;62154;54.914;73.444;2023-02-08T01:28:13;101367.69;;;-14.32;77.57
73824;BME280;62154;54.914;73.444;2023-02-08T01:30:46;101421.31;;;-14.08;77.63
73824;BME280;62154;54.914;73.444;2023-02-08T01:33:18;101409.03;;;-14.15;77.70
73824;BME280;62154;54.914;73.444;2023-02-08T01:35:57;101413.56;;;-14.19;77.73
73824;BME280;62154;54.914;73.444;2023-02-08T01:38:24;101420.59;;;-14.16;77.43
73824;BME280;62154;54.914;73.444;2023-02-08T01:40:57;101423.34;;;-14.19;77.27
73824;BME280;62154;54.914;73.444;2023-02-08T01:43:31;101399.75;;;-14.35;77.38
73824;BME280;62154;54.914;73.444;2023-02-08T01:46:11;101416.34;;;-14.23;77.30
73824;BME280;62154;54.914;73.444;2023-02-08T01:48:40;101423.44;;;-14.24;77.20
73824;BME280;62154;54.914;73.444;2023-02-08T01:51:20;101420.91;;;-14.30;77.09
73824;BME280;62154;54.914;73.444;2023-02-08T01:53:49;101429.81;;;-14.31;76.89
73824;BME280;62154;54.914;73.444;2023-02-08T01:56:26;101417.56;;;-14.38;76.83
73824;BME280;62154;54.914;73.444;2023-02-08T01:59:03;101423.81;;;-14.39;77.09
73824;BME280;62154;54.914;73.444;2023-02-08T02:01:32;101421.19;;;-14.41;77.23
73824;BME280;62154;54.914;73.444;2023-02-08T02:04:05;101423.03;;;-14.45;76.92
73824;BME280;62154;54.914;73.444;2023-02-08T02:06:40;101424.97;;;-14.51;76.61
73824;BME280;62154;54.914;73.444;2023-02-08T02:09:16;101424.16;;;-14.56;76.75
73824;BME280;62154;54.914;73.444;2023-02-08T02:11:45;101389.25;;;-14.80;76.56
73824;BME280;62154;54.914;73.444;2023-02-08T02:14:13;101413.75;;;-14.66;76.63
73824;BME280;62154;54.914;73.444;2023-02-08T02:17:12;101398.91;;;-14.76;76.83
73824;BME280;62154;54.914;73.444;2023-02-08T02:36:59;101430.41;;;-14.97;76.66
73824;BME280;62154;54.914;73.444;2023-02-08T02:43:22;101428.03;;;-15.12;76.70
73824;BME280;62154;54.914;73.444;2023-02-08T02:52:02;101427.50;;;-15.30;76.67
73824;BME280;62154;54.914;73.444;2023-02-08T02:54:45;101448.53;;;-15.19;76.89
73824;BME280;62154;54.914;73.444;2023-02-08T02:57:21;101446.88;;;-15.23;76.76
73824;BME280;62154;54.914;73.444;2023-02-08T03:00:06;101452.03;;;-15.15;77.16
73824;BME280;62154;54.914;73.444;2023-02-08T03:02:38;101450.34;;;-15.19;76.92
73824;BME280;62154;54.914;73.444;2023-02-08T03:05:09;101403.91;;;-15.48;76.77
73824;BME280;62154;54.914;73.444;2023-02-08T03:13:54;101445.34;;;-15.38;76.61
73824;BME280;62154;54.914;73.444;2023-02-08T03:22:20;101382.38;;;-15.81;76.54
73824;BME280;62154;54.914;73.444;2023-02-08T03:24:54;101385.06;;;-15.83;76.69
73824;BME280;62154;54.914;73.444;2023-02-08T03:30:14;101447.53;;;-15.62;76.47
73824;BME280;62154;54.914;73.444;2023-02-08T03:32:50;101444.06;;;-15.64;76.80
73824;BME280;62154;54.914;73.444;2023-02-08T03:35:24;101448.47;;;-15.63;76.77
73824;BME280;62154;54.914;73.444;2023-02-08T03:38:30;101436.94;;;-15.63;76.61
73824;BME280;62154;54.914;73.444;2023-02-08T03:41:10;101436.13;;;-15.67;76.76
73824;BME280;62154;54.914;73.444;2023-02-08T03:43:55;101452.88;;;-15.62;76.55
73824;BME280;62154;54.914;73.444;2023-02-08T03:46:32;101451.25;;;-15.69;76.36
73824;BME280;62154;54.914;73.444;2023-02-08T03:49:14;101451.06;;;-15.60;76.39
73824;BME280;62154;54.914;73.444;2023-02-08T03:51:44;101446.66;;;-15.61;76.30
73824;BME280;62154;54.914;73.444;2023-02-08T03:54:20;101445.81;;;-15.63;76.46
73824;BME280;62154;54.914;73.444;2023-02-08T03:59:29;101455.53;;;-15.60;76.64
73824;BME280;62154;54.914;73.444;2023-02-08T04:02:00;101460.63;;;-15.49;76.84
73824;BME280;62154;54.914;73.444;2023-02-08T04:04:36;101457.00;;;-15.44;76.97
73824;BME280;62154;54.914;73.444;2023-02-08T04:07:05;101445.47;;;-15.44;76.77
73824;BME280;62154;54.914;73.444;2023-02-08T04:09:33;101455.06;;;-15.35;76.46
73824;BME280;62154;54.914;73.444;2023-02-08T04:12:00;101415.56;;;-15.57;76.11
73824;BME280;62154;54.914;73.444;2023-02-08T04:14:27;101455.81;;;-15.29;76.01
73824;BME280;62154;54.914;73.444;2023-02-08T04:16:55;101449.72;;;-15.32;75.87
73824;BME280;62154;54.914;73.444;2023-02-08T04:19:23;101448.09;;;-15.41;75.94
73824;BME280;62154;54.914;73.444;2023-02-08T04:21:53;101462.13;;;-15.34;76.06
73824;BME280;62154;54.914;73.444;2023-02-08T04:24:25;101452.47;;;-15.38;75.70
73824;BME280;62154;54.914;73.444;2023-02-08T04:26:53;101445.53;;;-15.47;76.34
73824;BME280;62154;54.914;73.444;2023-02-08T04:29:21;101454.34;;;-15.44;76.09
73824;BME280;62154;54.914;73.444;2023-02-08T04:31:50;101445.56;;;-15.50;76.25
73824;BME280;62154;54.914;73.444;2023-02-08T04:34:19;101433.34;;;-15.61;76.15
73824;BME280;62154;54.914;73.444;2023-02-08T04:36:46;101453.66;;;-15.55;75.89
73824;BME280;62154;54.914;73.444;2023-02-08T04:39:14;101447.53;;;-15.62;75.82
73824;BME280;62154;54.914;73.444;2023-02-08T04:41:52;101461.69;;;-15.60;75.75
73824;BME280;62154;54.914;73.444;2023-02-08T04:44:20;101431.66;;;-15.65;75.78
73824;BME280;62154;54.914;73.444;2023-02-08T04:46:48;101435.97;;;-15.59;75.76
73824;BME280;62154;54.914;73.444;2023-02-08T04:49:20;101429.84;;;-15.61;75.89
73824;BME280;62154;54.914;73.444;2023-02-08T04:51:48;101431.50;;;-15.54;75.83
73824;BME280;62154;54.914;73.444;2023-02-08T04:54:17;101422.63;;;-15.54;76.08
73824;BME280;62154;54.914;73.444;2023-02-08T04:56:51;101435.72;;;-15.45;76.11
73824;BME280;62154;54.914;73.444;2023-02-08T04:59:23;101389.31;;;-15.74;76.02
73824;BME280;62154;54.914;73.444;2023-02-08T05:01:50;101433.97;;;-15.45;75.70
73824;BME280;62154;54.914;73.444;2023-02-08T05:04:18;101431.31;;;-15.45;75.98
73824;BME280;62154;54.914;73.444;2023-02-08T05:06:45;101431.28;;;-15.43;76.60
73824;BME280;62154;54.914;73.444;2023-02-08T05:09:18;101406.56;;;-15.48;76.58
73824;BME280;62154;54.914;73.444;2023-02-08T05:11:47;101421.44;;;-15.38;76.76
73824;BME280;62154;54.914;73.444;2023-02-08T05:14:19;101408.91;;;-15.33;77.05
73824;BME280;62154;54.914;73.444;2023-02-08T05:16:57;101409.91;;;-15.37;76.73
73824;BME280;62154;54.914;73.444;2023-02-08T05:19:25;101360.53;;;-15.52;77.30
73824;BME280;62154;54.914;73.444;2023-02-08T05:21:53;101414.78;;;-15.15;77.26
73824;BME280;62154;54.914;73.444;2023-02-08T05:24:26;101426.22;;;-15.10;77.39
73824;BME280;62154;54.914;73.444;2023-02-08T05:26:54;101386.53;;;-15.21;77.62
73824;BME280;62154;54.914;73.444;2023-02-08T05:29:32;101405.59;;;-14.99;77.32
73824;BME280;62154;54.914;73.444;2023-02-08T05:32:00;101423.97;;;-14.86;77.51
73824;BME280;62154;54.914;73.444;2023-02-08T05:34:28;101418.47;;;-14.79;77.40
73824;BME280;62154;54.914;73.444;2023-02-08T05:37:00;101411.41;;;-14.80;77.65
73824;BME280;62154;54.914;73.444;2023-02-08T05:39:29;101413.84;;;-14.69;77.79
73824;BME280;62154;54.914;73.444;2023-02-08T05:41:57;101421.63;;;-14.61;78.10
73824;BME280;62154;54.914;73.444;2023-02-08T05:44:30;101420.59;;;-14.54;78.20
73824;BME280;62154;54.914;73.444;2023-02-08T05:47:03;101418.63;;;-14.46;78.56
73824;BME280;62154;54.914;73.444;2023-02-08T05:49:31;101415.84;;;-14.41;78.23
73824;BME280;62154;54.914;73.444;2023-02-08T05:51:59;101418.28;;;-14.32;78.86
73824;BME280;62154;54.914;73.444;2023-02-08T05:54:29;101421.50;;;-14.17;78.63
73824;BME280;62154;54.914;73.444;2023-02-08T05:56:59;101409.88;;;-14.15;78.65
73824;BME280;62154;54.914;73.444;2023-02-08T05:59:30;101419.28;;;-13.98;78.52
73824;BME280;62154;54.914;73.444;2023-02-08T06:02:02;101417.34;;;-13.91;78.17
73824;BME280;62154;54.914;73.444;2023-02-08T06:04:39;101409.09;;;-13.82;78.07
73824;BME280;62154;54.914;73.444;2023-02-08T06:07:07;101411.50;;;-13.71;78.19
73824;BME280;62154;54.914;73.444;2023-02-08T06:09:34;101413.09;;;-13.64;78.01
73824;BME280;62154;54.914;73.444;2023-02-08T06:12:14;101411.97;;;-13.54;78.24
73824;BME280;62154;54.914;73.444;2023-02-08T06:14:41;101386.31;;;-13.59;77.78
73824;BME280;62154;54.914;73.444;2023-02-08T06:17:09;101414.31;;;-13.43;77.43
73824;BME280;62154;54.914;73.444;2023-02-08T06:19:37;101396.31;;;-13.36;77.27
73824;BME280;62154;54.914;73.444;2023-02-08T06:22:04;101409.44;;;-13.29;76.79
73824;BME280;62154;54.914;73.444;2023-02-08T06:24:34;101399.88;;;-13.36;76.63
73824;BME280;62154;54.914;73.444;2023-02-08T06:27:02;101336.72;;;-13.67;76.47
73824;BME280;62154;54.914;73.444;2023-02-08T06:29:29;101400.72;;;-13.35;76.41
73824;BME280;62154;54.914;73.444;2023-02-08T06:31:57;101399.78;;;-13.33;76.16
73824;BME280;62154;54.914;73.444;2023-02-08T06:34:27;101407.97;;;-13.39;75.89
73824;BME280;62154;54.914;73.444;2023-02-08T06:36:54;101404.50;;;-13.42;75.73
73824;BME280;62154;54.914;73.444;2023-02-08T06:39:23;101408.22;;;-13.48;75.82
73824;BME280;62154;54.914;73.444;2023-02-08T06:41:51;101406.47;;;-13.49;75.53
73824;BME280;62154;54.914;73.444;2023-02-08T06:44:19;101411.75;;;-13.46;75.82
73824;BME280;62154;54.914;73.444;2023-02-08T06:46:57;101398.56;;;-13.52;75.73
73824;BME280;62154;54.914;73.444;2023-02-08T06:49:24;101412.72;;;-13.49;75.56
73824;BME280;62154;54.914;73.444;2023-02-08T06:51:52;101421.47;;;-13.45;75.99
73824;BME280;62154;54.914;73.444;2023-02-08T06:54:29;101399.38;;;-13.49;76.03
73824;BME280;62154;54.914;73.444;2023-02-08T06:57:02;101405.34;;;-13.40;75.65
73824;BME280;62154;54.914;73.444;2023-02-08T06:59:38;101394.53;;;-13.36;75.75
73824;BME280;62154;54.914;73.444;2023-02-08T07:02:18;101349.06;;;-13.63;75.53
73824;BME280;62154;54.914;73.444;2023-02-08T07:04:51;101398.81;;;-13.30;75.56
73824;BME280;62154;54.914;73.444;2023-02-08T07:07:24;101384.72;;;-13.35;75.15
73824;BME280;62154;54.914;73.444;2023-02-08T07:09:53;101391.78;;;-13.33;75.27
73824;BME280;62154;54.914;73.444;2023-02-08T07:12:21;101399.72;;;-13.30;75.36
73824;BME280;62154;54.914;73.444;2023-02-08T07:14:54;101389.91;;;-13.29;75.27
73824;BME280;62154;54.914;73.444;2023-02-08T07:17:21;101386.28;;;-13.26;75.32
73824;BME280;62154;54.914;73.444;2023-02-08T07:19:50;101394.09;;;-13.20;75.03
73824;BME280;62154;54.914;73.444;2023-02-08T07:22:22;101401.19;;;-13.19;75.28
73824;BME280;62154;54.914;73.444;2023-02-08T07:24:50;101396.69;;;-13.17;75.16
73824;BME280;62154;54.914;73.444;2023-02-08T07:27:18;101382.56;;;-13.21;75.03
73824;BME280;62154;54.914;73.444;2023-02-08T07:29:52;101376.16;;;-13.15;74.96
73824;BME280;62154;54.914;73.444;2023-02-08T07:32:19;101368.22;;;-13.17;74.80
73824;BME280;62154;54.914;73.444;2023-02-08T07:34:47;101361.97;;;-13.17;74.59
73824;BME280;62154;54.914;73.444;2023-02-08T07:37:20;101370.56;;;-13.06;74.86
73824;BME280;62154;54.914;73.444;2023-02-08T07:39:48;101369.53;;;-13.00;74.67
73824;BME280;62154;54.914;73.444;2023-02-08T07:42:26;101354.34;;;-13.00;74.65
73824;BME280;62154;54.914;73.444;2023-02-08T07:45:10;101355.75;;;-12.86;74.58
73824;BME280;62154;54.914;73.444;2023-02-08T07:47:48;101353.81;;;-12.81;74.29
73824;BME280;62154;54.914;73.444;2023-02-08T07:50:16;101355.41;;;-12.74;74.22
73824;BME280;62154;54.914;73.444;2023-02-08T07:52:44;101355.03;;;-12.63;74.35
73824;BME280;62154;54.914;73.444;2023-02-08T07:55:16;101357.44;;;-12.54;74.16
73824;BME280;62154;54.914;73.444;2023-02-08T07:57:44;101363.31;;;-12.42;74.12
73824;BME280;62154;54.914;73.444;2023-02-08T08:00:18;101357.63;;;-12.32;73.98
73824;BME280;62154;54.914;73.444;2023-02-08T08:02:51;101368.13;;;-12.25;73.75
73824;BME280;62154;54.914;73.444;2023-02-08T08:05:24;101356.47;;;-12.23;73.39
73824;BME280;62154;54.914;73.444;2023-02-08T08:07:51;101354.69;;;-12.24;73.01
73824;BME280;62154;54.914;73.444;2023-02-08T08:10:19;101341.03;;;-12.15;73.41
73824;BME280;62154;54.914;73.444;2023-02-08T08:12:47;101331.31;;;-12.17;72.70
73824;BME280;62154;54.914;73.444;2023-02-08T08:15:15;101339.19;;;-12.13;73.38
73824;BME280;62154;54.914;73.444;2023-02-08T08:17:42;101340.69;;;-12.04;73.56
73824;BME280;62154;54.914;73.444;2023-02-08T08:20:10;101328.22;;;-12.05;73.14
73824;BME280;62154;54.914;73.444;2023-02-08T08:22:38;101341.00;;;-11.88;72.69
73824;BME280;62154;54.914;73.444;2023-02-08T08:25:15;101333.28;;;-11.95;72.29
73824;BME280;62154;54.914;73.444;2023-02-08T08:27:44;101335.59;;;-11.86;72.35
73824;BME280;62154;54.914;73.444;2023-02-08T08:30:14;101297.91;;;-12.04;72.72
73824;BME280;62154;54.914;73.444;2023-02-08T08:32:42;101247.66;;;-12.19;72.13
73824;BME280;62154;54.914;73.444;2023-02-08T08:35:10;101319.72;;;-11.66;71.96
73824;BME280;62154;54.914;73.444;2023-02-08T08:37:45;101317.75;;;-11.60;72.05
73824;BME280;62154;54.914;73.444;2023-02-08T08:40:12;101315.00;;;-11.59;71.68
73824;BME280;62154;54.914;73.444;2023-02-08T08:42:40;101306.41;;;-11.67;71.41
73824;BME280;62154;54.914;73.444;2023-02-08T08:45:08;101305.63;;;-11.71;71.30
73824;BME280;62154;54.914;73.444;2023-02-08T08:47:38;101325.00;;;-11.64;71.19
73824;BME280;62154;54.914;73.444;2023-02-08T08:50:06;101318.59;;;-11.58;71.50
73824;BME280;62154;54.914;73.444;2023-02-08T08:52:34;101312.94;;;-11.51;71.39
73824;BME280;62154;54.914;73.444;2023-02-08T08:55:11;101301.47;;;-11.54;71.25
73824;BME280;62154;54.914;73.444;2023-02-08T08:57:45;101314.06;;;-11.33;71.27
73824;BME280;62154;54.914;73.444;2023-02-08T09:00:13;101318.28;;;-11.25;70.72
73824;BME280;62154;54.914;73.444;2023-02-08T09:02:51;101317.34;;;-11.24;70.69
73824;BME280;62154;54.914;73.444;2023-02-08T09:05:19;101320.03;;;-11.24;70.54
73824;BME280;62154;54.914;73.444;2023-02-08T09:07:46;101314.78;;;-11.27;70.15
73824;BME280;62154;54.914;73.444;2023-02-08T09:10:14;101307.84;;;-11.33;70.04
73824;BME280;62154;54.914;73.444;2023-02-08T09:12:41;101329.09;;;-11.28;70.03
73824;BME280;62154;54.914;73.444;2023-02-08T09:15:09;101327.41;;;-11.31;69.83
73824;BME280;62154;54.914;73.444;2023-02-08T09:17:37;101327.59;;;-11.36;69.80
73824;BME280;62154;54.914;73.444;2023-02-08T09:20:05;101323.09;;;-11.35;69.74
73824;BME280;62154;54.914;73.444;2023-02-08T09:22:33;101322.16;;;-11.34;70.00
73824;BME280;62154;54.914;73.444;2023-02-08T09:25:00;101318.72;;;-11.38;69.50
73824;BME280;62154;54.914;73.444;2023-02-08T09:27:30;101320.69;;;-11.43;69.49
73824;BME280;62154;54.914;73.444;2023-02-08T09:30:04;101274.75;;;-11.80;69.20
73824;BME280;62154;54.914;73.444;2023-02-08T09:32:37;101281.06;;;-11.82;69.51
73824;BME280;62154;54.914;73.444;2023-02-08T09:35:07;101271.56;;;-11.91;69.90
73824;BME280;62154;54.914;73.444;2023-02-08T09:37:34;101311.81;;;-11.69;69.99
73824;BME280;62154;54.914;73.444;2023-02-08T09:40:20;101309.16;;;-11.69;69.86
73824;BME280;62154;54.914;73.444;2023-02-08T09:42:58;101309.22;;;-11.72;69.73
73824;BME280;62154;54.914;73.444;2023-02-08T09:45:50;101313.66;;;-11.71;69.71
73824;BME280;62154;54.914;73.444;2023-02-08T09:48:35;101263.59;;;-11.92;69.71
73824;BME280;62154;54.914;73.444;2023-02-08T09:54:08;101305.53;;;-11.68;69.82
73824;BME280;62154;54.914;73.444;2023-02-08T09:56:51;101310.84;;;-11.66;69.51
73824;BME280;62154;54.914;73.444;2023-02-08T09:59:33;101309.03;;;-11.66;69.64
73824;BME280;62154;54.914;73.444;2023-02-08T10:02:22;101316.13;;;-11.65;69.60
73824;BME280;62154;54.914;73.444;2023-02-08T10:05:02;101310.78;;;-11.65;69.65
73824;BME280;62154;54.914;73.444;2023-02-08T10:07:31;101307.13;;;-11.62;69.92
73824;BME280;62154;54.914;73.444;2023-02-08T10:13:04;101308.25;;;-11.69;69.40
73824;BME280;62154;54.914;73.444;2023-02-08T10:15:47;101307.44;;;-11.71;69.63
73824;BME280;62154;54.914;73.444;2023-02-08T10:18:49;101322.47;;;-11.67;69.22
73824;BME280;62154;54.914;73.444;2023-02-08T10:21:23;101314.84;;;-11.80;68.17
73824;BME280;62154;54.914;73.444;2023-02-08T10:27:23;101308.22;;;-11.93;68.51
73824;BME280;62154;54.914;73.444;2023-02-08T10:33:13;101285.94;;;-12.19;68.76
73824;BME280;62154;54.914;73.444;2023-02-08T10:35:48;101302.53;;;-12.09;68.78
73824;BME280;62154;54.914;73.444;2023-02-08T10:40:50;101288.66;;;-12.20;68.77
73824;BME280;62154;54.914;73.444;2023-02-08T10:43:38;101295.63;;;-12.16;68.73
73824;BME280;62154;54.914;73.444;2023-02-08T10:46:30;101293.94;;;-12.19;68.99
73824;BME280;62154;54.914;73.444;2023-02-08T10:49:18;101295.84;;;-12.22;68.75
73824;BME280;62154;54.914;73.444;2023-02-08T10:51:50;101267.75;;;-12.34;68.96
73824;BME280;62154;54.914;73.444;2023-02-08T10:54:25;101250.53;;;-12.52;68.92
73824;BME280;62154;54.914;73.444;2023-02-08T10:56:55;101289.78;;;-12.27;68.80
73824;BME280;62154;54.914;73.444;2023-02-08T10:59:27;101296.22;;;-12.33;68.88
73824;BME280;62154;54.914;73.444;2023-02-08T11:02:30;101292.91;;;-12.41;68.81
73824;BME280;62154;54.914;73.444;2023-02-08T11:05:09;101293.09;;;-12.48;68.69
73824;BME280;62154;54.914;73.444;2023-02-08T11:07:40;101300.38;;;-12.51;69.00
73824;BME280;62154;54.914;73.444;2023-02-08T11:15:36;101282.19;;;-12.68;68.69
73824;BME280;62154;54.914;73.444;2023-02-08T11:21:05;101253.75;;;-12.98;68.94
73824;BME280;62154;54.914;73.444;2023-02-08T11:23:39;101287.06;;;-12.81;69.28
73824;BME280;62154;54.914;73.444;2023-02-08T11:26:34;101296.84;;;-12.80;69.18
73824;BME280;62154;54.914;73.444;2023-02-08T11:31:35;101299.63;;;-12.85;69.23
73824;BME280;62154;54.914;73.444;2023-02-08T11:34:13;101257.69;;;-13.09;69.56
73824;BME280;62154;54.914;73.444;2023-02-08T11:36:45;101283.03;;;-12.95;69.26
73824;BME280;62154;54.914;73.444;2023-02-08T11:39:41;101287.56;;;-12.97;69.35
73824;BME280;62154;54.914;73.444;2023-02-08T11:42:37;101288.53;;;-13.01;69.50
73824;BME280;62154;54.914;73.444;2023-02-08T11:45:34;101265.06;;;-13.18;69.46
73824;BME280;62154;54.914;73.444;2023-02-08T11:48:02;101291.56;;;-13.12;69.38
73824;BME280;62154;54.914;73.444;2023-02-08T11:50:41;101277.47;;;-13.17;69.44
73824;BME280;62154;54.914;73.444;2023-02-08T11:53:22;101281.16;;;-13.21;69.49
73824;BME280;62154;54.914;73.444;2023-02-08T11:59:04;101225.56;;;-13.65;69.81
73824;BME280;62154;54.914;73.444;2023-02-08T12:01:36;101270.84;;;-13.33;69.90
73824;BME280;62154;54.914;73.444;2023-02-08T12:04:12;101269.25;;;-13.39;69.86
73824;BME280;62154;54.914;73.444;2023-02-08T12:06:53;101225.69;;;-13.69;69.88
73824;BME280;62154;54.914;73.444;2023-02-08T12:21:11;101241.78;;;-13.72;70.17
73824;BME280;62154;54.914;73.444;2023-02-08T12:23:55;101265.38;;;-13.58;70.43
73824;BME280;62154;54.914;73.444;2023-02-08T12:29:48;101234.97;;;-13.83;69.89
73824;BME280;62154;54.914;73.444;2023-02-08T12:35:21;101272.13;;;-13.76;70.31
73824;BME280;62154;54.914;73.444;2023-02-08T12:41:06;101262.59;;;-13.85;70.69
73824;BME280;62154;54.914;73.444;2023-02-08T12:57:37;101248.91;;;-14.06;70.51
73824;BME280;62154;54.914;73.444;2023-02-08T13:00:15;101249.75;;;-14.04;70.08
73824;BME280;62154;54.914;73.444;2023-02-08T13:03:05;101250.75;;;-14.08;70.28
73824;BME280;62154;54.914;73.444;2023-02-08T13:05:44;101257.09;;;-14.12;70.18
73824;BME280;62154;54.914;73.444;2023-02-08T13:11:03;101250.13;;;-14.18;70.32
73824;BME280;62154;54.914;73.444;2023-02-08T13:13:38;101236.16;;;-14.26;70.44
73824;BME280;62154;54.914;73.444;2023-02-08T13:16:24;101254.75;;;-14.24;70.18
73824;BME280;62154;54.914;73.444;2023-02-08T13:19:06;101235.16;;;-14.58;69.61
73824;BME280;62154;54.914;73.444;2023-02-08T13:21:45;101245.75;;;-14.91;69.59
73824;BME280;62154;54.914;73.444;2023-02-08T13:26:56;101225.25;;;-15.25;71.62
73824;BME280;62154;54.914;73.444;2023-02-08T13:29:23;101235.03;;;-15.26;71.65
73824;BME280;62154;54.914;73.444;2023-02-08T13:32:07;101224.78;;;-15.44;71.69
73824;BME280;62154;54.914;73.444;2023-02-08T13:34:49;101239.78;;;-15.40;72.13
73824;BME280;62154;54.914;73.444;2023-02-08T13:37:23;101238.84;;;-15.37;72.49
73824;BME280;62154;54.914;73.444;2023-02-08T13:42:48;101226.19;;;-15.28;72.24
73824;BME280;62154;54.914;73.444;2023-02-08T13:45:32;101209.44;;;-15.30;72.12
73824;BME280;62154;54.914;73.444;2023-02-08T13:48:03;101166.75;;;-15.63;71.90
73824;BME280;62154;54.914;73.444;2023-02-08T13:50:51;101068.19;;;-16.32;71.93
73824;BME280;62154;54.914;73.444;2023-02-08T13:56:11;101206.72;;;-15.69;72.48
73824;BME280;62154;54.914;73.444;2023-02-08T14:02:17;101220.19;;;-15.77;73.16
73824;BME280;62154;54.914;73.444;2023-02-08T14:06:50;101209.00;;;-15.93;73.37
73824;BME280;62154;54.914;73.444;2023-02-08T14:10:24;101196.75;;;-15.98;73.62
73824;BME280;62154;54.914;73.444;2023-02-08T14:12:55;101214.25;;;-15.89;73.86
73824;BME280;62154;54.914;73.444;2023-02-08T14:15:29;101138.06;;;-16.31;73.87
73824;BME280;62154;54.914;73.444;2023-02-08T14:17:58;101216.78;;;-15.82;73.67
73824;BME280;62154;54.914;73.444;2023-02-08T14:22:58;101219.13;;;-15.68;72.74
73824;BME280;62154;54.914;73.444;2023-02-08T14:25:40;101218.31;;;-15.73;72.86
73824;BME280;62154;54.914;73.444;2023-02-08T14:28:34;101216.66;;;-15.79;72.96
73824;BME280;62154;54.914;73.444;2023-02-08T14:31:07;101182.66;;;-16.03;73.18
73824;BME280;62154;54.914;73.444;2023-02-08T14:33:48;101213.28;;;-15.84;73.54
73824;BME280;62154;54.914;73.444;2023-02-08T14:36:25;101200.97;;;-15.89;73.51
73824;BME280;62154;54.914;73.444;2023-02-08T14:39:25;101205.31;;;-15.84;73.36
73824;BME280;62154;54.914;73.444;2023-02-08T14:42:11;101208.81;;;-15.83;73.38
73824;BME280;62154;54.914;73.444;2023-02-08T14:44:58;101196.47;;;-15.84;73.00
73824;BME280;62154;54.914;73.444;2023-02-08T14:55:48;101201.97;;;-15.95;72.80
73824;BME280;62154;54.914;73.444;2023-02-08T14:58:25;101203.00;;;-16.02;73.11
73824;BME280;62154;54.914;73.444;2023-02-08T15:01:05;101200.50;;;-16.10;72.99
73824;BME280;62154;54.914;73.444;2023-02-08T15:03:39;101203.59;;;-16.33;72.67
73824;BME280;62154;54.914;73.444;2023-02-08T15:09:23;101205.31;;;-16.79;73.53
73824;BME280;62154;54.914;73.444;2023-02-08T15:12:04;101218.53;;;-16.78;74.12
73824;BME280;62154;54.914;73.444;2023-02-08T15:14:35;101206.22;;;-16.80;74.18
73824;BME280;62154;54.914;73.444;2023-02-08T15:17:33;101212.31;;;-16.75;74.12
73824;BME280;62154;54.914;73.444;2023-02-08T15:20:20;101215.00;;;-16.78;74.50
73824;BME280;62154;54.914;73.444;2023-02-08T15:23:02;101216.78;;;-16.79;74.61